sensor_id;sensor_type;location;lat;lon;timestamp;pressure;altitude;pressure_sealevel;temperature;humidity
55687;BME280;41911;52.362;4.978;2023-05-20T00:00:29;102635.46;;;13.95;42.59
55687;BME280;41911;52.362;4.978;2023-05-20T00:01:00;102635.70;;;14.33;42.33
55687;BME280;41911;52.362;4.978;2023-05-20T00:01:31;102635.62;;;14.33;42.65
55687;BME280;41911;52.362;4.978;2023-05-20T00:02:02;102635.77;;;14.40;42.69
55687;BME280;41911;52.362;4.978;2023-05-20T00:02:33;102638.56;;;14.07;42.36
55687;BME280;41911;52.362;4.978;2023-05-20T00:03:04;102635.46;;;14.35;42.30
55687;BME280;41911;52.362;4.978;2023-05-20T00:03:34;102636.85;;;14.42;42.19
55687;BME280;41911;52.362;4.978;2023-05-20T00:04:05;102639.40;;;14.09;42.41
55687;BME280;41911;52.362;4.978;2023-05-20T00:04:36;102635.24;;;14.29;42.81
55687;BME280;41911;52.362;4.978;2023-05-20T00:05:08;102639.40;;;14.34;42.29
55687;BME280;41911;52.362;4.978;2023-05-20T00:05:39;102636.59;;;13.80;42.13
55687;BME280;41911;52.362;4.978;2023-05-20T00:06:09;102631.53;;;14.37;42.32
55687;BME280;41911;52.362;4.978;2023-05-20T00:06:40;102633.98;;;14.45;42.15
55687;BME280;41911;52.362;4.978;2023-05-20T00:07:11;102635.24;;;14.41;42.10
55687;BME280;41911;52.362;4.978;2023-05-20T00:07:42;102630.80;;;14.01;41.79
55687;BME280;41911;52.362;4.978;2023-05-20T00:08:13;102636.67;;;14.36;41.80
55687;BME280;41911;52.362;4.978;2023-05-20T00:08:44;102636.73;;;14.13;41.68
55687;BME280;41911;52.362;4.978;2023-05-20T00:09:15;102634.69;;;14.14;41.97
55687;BME280;41911;52.362;4.978;2023-05-20T00:09:46;102633.81;;;14.22;42.02
55687;BME280;41911;52.362;4.978;2023-05-20T00:10:18;102635.44;;;14.32;41.85
55687;BME280;41911;52.362;4.978;2023-05-20T00:10:49;102633.49;;;14.00;42.07
55687;BME280;41911;52.362;4.978;2023-05-20T00:11:19;102639.21;;;13.88;41.62
55687;BME280;41911;52.362;4.978;2023-05-20T00:11:55;102633.64;;;13.87;42.30
55687;BME280;41911;52.362;4.978;2023-05-20T00:12:26;102635.14;;;13.69;42.47
55687;BME280;41911;52.362;4.978;2023-05-20T00:12:57;102633.74;;;14.18;41.83
55687;BME280;41911;52.362;4.978;2023-05-20T00:13:28;102633.39;;;14.17;41.30
55687;BME280;41911;52.362;4.978;2023-05-20T00:13:59;102632.92;;;13.85;41.24
55687;BME280;41911;52.362;4.978;2023-05-20T00:14:30;102635.22;;;14.12;41.47
55687;BME280;41911;52.362;4.978;2023-05-20T00:15:01;102639.80;;;14.02;41.32
55687;BME280;41911;52.362;4.978;2023-05-20T00:15:33;102637.53;;;14.02;41.33
55687;BME280;41911;52.362;4.978;2023-05-20T00:16:04;102637.49;;;13.76;41.40
55687;BME280;41911;52.362;4.978;2023-05-20T00:16:35;102639.99;;;13.89;41.50
55687;BME280;41911;52.362;4.978;2023-05-20T00:17:06;102641.18;;;13.85;41.58
55687;BME280;41911;52.362;4.978;2023-05-20T00:17:37;102643.76;;;13.98;41.41
55687;BME280;41911;52.362;4.978;2023-05-20T00:18:08;102637.81;;;13.58;41.69
55687;BME280;41911;52.362;4.978;2023-05-20T00:18:39;102638.83;;;13.97;41.59
55687;BME280;41911;52.362;4.978;2023-05-20T00:19:10;102637.31;;;14.03;41.59
55687;BME280;41911;52.362;4.978;2023-05-20T00:19:41;102634.85;;;14.10;41.61
55687;BME280;41911;52.362;4.978;2023-05-20T00:20:12;102641.36;;;14.15;41.59
55687;BME280;41911;52.362;4.978;2023-05-20T00:20:44;102639.04;;;13.96;41.53
55687;BME280;41911;52.362;4.978;2023-05-20T00:21:15;102639.51;;;13.83;41.67
55687;BME280;41911;52.362;4.978;2023-05-20T00:21:46;102637.19;;;13.92;41.51
55687;BME280;41911;52.362;4.978;2023-05-20T00:22:16;102640.00;;;13.97;41.59
55687;BME280;41911;52.362;4.978;2023-05-20T00:22:48;102633.47;;;13.99;41.62
55687;BME280;41911;52.362;4.978;2023-05-20T00:23:18;102635.91;;;14.08;41.24
55687;BME280;41911;52.362;4.978;2023-05-20T00:23:50;102631.55;;;14.10;41.61
55687;BME280;41911;52.362;4.978;2023-05-20T00:24:21;102634.35;;;13.98;41.42
55687;BME280;41911;52.362;4.978;2023-05-20T00:24:52;102632.19;;;14.02;41.26
55687;BME280;41911;52.362;4.978;2023-05-20T00:25:23;102636.19;;;13.65;41.74
55687;BME280;41911;52.362;4.978;2023-05-20T00:25:54;102635.51;;;13.67;41.35
55687;BME280;41911;52.362;4.978;2023-05-20T00:26:24;102634.53;;;13.81;41.04
55687;BME280;41911;52.362;4.978;2023-05-20T00:26:55;102631.56;;;13.78;41.25
55687;BME280;41911;52.362;4.978;2023-05-20T00:27:26;102633.60;;;13.83;41.60
55687;BME280;41911;52.362;4.978;2023-05-20T00:27:57;102633.65;;;13.99;41.25
55687;BME280;41911;52.362;4.978;2023-05-20T00:28:28;102633.50;;;13.75;41.52
55687;BME280;41911;52.362;4.978;2023-05-20T00:28:59;102631.21;;;13.93;41.25
55687;BME280;41911;52.362;4.978;2023-05-20T00:29:30;102633.02;;;13.89;41.86
55687;BME280;41911;52.362;4.978;2023-05-20T00:30:01;102633.38;;;14.06;41.79
55687;BME280;41911;52.362;4.978;2023-05-20T00:30:32;102632.96;;;13.66;42.08
55687;BME280;41911;52.362;4.978;2023-05-20T00:31:03;102631.92;;;13.74;42.07
55687;BME280;41911;52.362;4.978;2023-05-20T00:31:34;102632.21;;;13.79;42.09
55687;BME280;41911;52.362;4.978;2023-05-20T00:32:06;102633.37;;;13.81;42.23
55687;BME280;41911;52.362;4.978;2023-05-20T00:32:37;102633.94;;;13.94;41.91
55687;BME280;41911;52.362;4.978;2023-05-20T00:33:08;102632.40;;;14.01;41.64
55687;BME280;41911;52.362;4.978;2023-05-20T00:33:39;102634.73;;;14.03;41.71
55687;BME280;41911;52.362;4.978;2023-05-20T00:34:10;102632.97;;;13.89;41.95
55687;BME280;41911;52.362;4.978;2023-05-20T00:34:42;102634.35;;;13.77;41.94
55687;BME280;41911;52.362;4.978;2023-05-20T00:35:12;102634.98;;;13.93;41.54
55687;BME280;41911;52.362;4.978;2023-05-20T00:35:43;102634.89;;;13.89;41.53
55687;BME280;41911;52.362;4.978;2023-05-20T00:36:14;102632.11;;;13.85;41.79
55687;BME280;41911;52.362;4.978;2023-05-20T00:36:45;102633.61;;;13.75;41.64
55687;BME280;41911;52.362;4.978;2023-05-20T00:37:16;102631.26;;;13.77;41.85
55687;BME280;41911;52.362;4.978;2023-05-20T00:37:47;102630.78;;;13.77;41.87
55687;BME280;41911;52.362;4.978;2023-05-20T00:38:18;102632.34;;;13.58;41.60
55687;BME280;41911;52.362;4.978;2023-05-20T00:38:49;102635.06;;;13.91;41.67
55687;BME280;41911;52.362;4.978;2023-05-20T00:39:20;102634.05;;;13.89;41.93
55687;BME280;41911;52.362;4.978;2023-05-20T00:39:51;102635.19;;;13.54;41.82
55687;BME280;41911;52.362;4.978;2023-05-20T00:40:22;102632.42;;;13.93;41.68
55687;BME280;41911;52.362;4.978;2023-05-20T00:40:53;102632.56;;;14.06;41.48
55687;BME280;41911;52.362;4.978;2023-05-20T00:41:24;102631.66;;;14.09;41.32
55687;BME280;41911;52.362;4.978;2023-05-20T00:41:55;102631.54;;;14.08;41.50
55687;BME280;41911;52.362;4.978;2023-05-20T00:42:27;102634.88;;;13.68;41.95
55687;BME280;41911;52.362;4.978;2023-05-20T00:42:58;102630.79;;;14.05;42.29
55687;BME280;41911;52.362;4.978;2023-05-20T00:43:29;102633.31;;;13.74;42.04
55687;BME280;41911;52.362;4.978;2023-05-20T00:44:00;102631.09;;;14.02;41.83
55687;BME280;41911;52.362;4.978;2023-05-20T00:44:31;102630.48;;;14.10;41.61
55687;BME280;41911;52.362;4.978;2023-05-20T00:45:02;102632.96;;;14.11;41.63
55687;BME280;41911;52.362;4.978;2023-05-20T00:45:33;102632.84;;;13.88;41.90
55687;BME280;41911;52.362;4.978;2023-05-20T00:46:04;102632.61;;;14.23;41.72
55687;BME280;41911;52.362;4.978;2023-05-20T00:46:35;102632.37;;;13.91;41.63
55687;BME280;41911;52.362;4.978;2023-05-20T00:47:06;102631.20;;;13.82;42.00
55687;BME280;41911;52.362;4.978;2023-05-20T00:47:37;102634.65;;;14.12;41.86
55687;BME280;41911;52.362;4.978;2023-05-20T00:48:08;102633.18;;;13.88;41.76
55687;BME280;41911;52.362;4.978;2023-05-20T00:48:42;102633.56;;;13.82;41.88
55687;BME280;41911;52.362;4.978;2023-05-20T00:49:13;102634.29;;;13.86;42.02
55687;BME280;41911;52.362;4.978;2023-05-20T00:49:45;102634.05;;;13.89;42.15
55687;BME280;41911;52.362;4.978;2023-05-20T00:50:16;102631.59;;;13.95;42.15
55687;BME280;41911;52.362;4.978;2023-05-20T00:50:48;102627.73;;;13.92;42.47
55687;BME280;41911;52.362;4.978;2023-05-20T00:51:19;102631.67;;;13.78;42.45
55687;BME280;41911;52.362;4.978;2023-05-20T00:51:51;102631.22;;;13.88;42.40
55687;BME280;41911;52.362;4.978;2023-05-20T00:52:22;102625.62;;;13.74;42.13
55687;BME280;41911;52.362;4.978;2023-05-20T00:52:54;102627.09;;;13.96;42.09
55687;BME280;41911;52.362;4.978;2023-05-20T00:53:25;102624.00;;;14.06;41.94
55687;BME280;41911;52.362;4.978;2023-05-20T00:53:56;102620.88;;;14.14;41.86
55687;BME280;41911;52.362;4.978;2023-05-20T00:54:27;102620.75;;;14.20;42.02
55687;BME280;41911;52.362;4.978;2023-05-20T00:54:59;102619.86;;;13.78;42.67
55687;BME280;41911;52.362;4.978;2023-05-20T00:55:30;102617.63;;;14.00;41.99
55687;BME280;41911;52.362;4.978;2023-05-20T00:56:02;102619.23;;;13.99;41.89
55687;BME280;41911;52.362;4.978;2023-05-20T00:56:34;102618.26;;;13.99;42.04
55687;BME280;41911;52.362;4.978;2023-05-20T00:57:06;102619.64;;;13.96;42.23
55687;BME280;41911;52.362;4.978;2023-05-20T00:57:37;102618.27;;;14.11;42.06
55687;BME280;41911;52.362;4.978;2023-05-20T00:58:09;102620.29;;;14.12;42.29
55687;BME280;41911;52.362;4.978;2023-05-20T00:58:40;102619.37;;;13.96;42.24
55687;BME280;41911;52.362;4.978;2023-05-20T00:59:11;102620.05;;;13.92;42.28
55687;BME280;41911;52.362;4.978;2023-05-20T00:59:42;102619.92;;;14.00;42.14
55687;BME280;41911;52.362;4.978;2023-05-20T01:00:13;102618.71;;;14.09;41.91
55687;BME280;41911;52.362;4.978;2023-05-20T01:00:44;102618.60;;;14.11;42.09
55687;BME280;41911;52.362;4.978;2023-05-20T01:01:16;102617.86;;;14.05;42.11
55687;BME280;41911;52.362;4.978;2023-05-20T01:01:47;102620.21;;;13.82;42.14
55687;BME280;41911;52.362;4.978;2023-05-20T01:02:18;102618.11;;;14.23;42.13
55687;BME280;41911;52.362;4.978;2023-05-20T01:02:49;102621.78;;;14.14;42.12
55687;BME280;41911;52.362;4.978;2023-05-20T01:03:20;102621.05;;;14.14;42.62
55687;BME280;41911;52.362;4.978;2023-05-20T01:03:51;102620.43;;;14.26;42.40
55687;BME280;41911;52.362;4.978;2023-05-20T01:04:22;102618.73;;;14.24;42.52
55687;BME280;41911;52.362;4.978;2023-05-20T01:04:53;102622.09;;;13.99;42.39
55687;BME280;41911;52.362;4.978;2023-05-20T01:05:25;102619.46;;;14.20;42.00
55687;BME280;41911;52.362;4.978;2023-05-20T01:05:55;102617.39;;;14.53;41.71
55687;BME280;41911;52.362;4.978;2023-05-20T01:06:26;102618.07;;;14.07;41.36
55687;BME280;41911;52.362;4.978;2023-05-20T01:06:58;102615.70;;;14.27;41.56
55687;BME280;41911;52.362;4.978;2023-05-20T01:07:30;102614.92;;;14.14;41.45
55687;BME280;41911;52.362;4.978;2023-05-20T01:08:01;102616.15;;;14.22;41.35
55687;BME280;41911;52.362;4.978;2023-05-20T01:08:32;102613.37;;;14.02;41.60
55687;BME280;41911;52.362;4.978;2023-05-20T01:09:03;102613.52;;;14.45;41.13
55687;BME280;41911;52.362;4.978;2023-05-20T01:09:34;102614.57;;;14.08;41.36
55687;BME280;41911;52.362;4.978;2023-05-20T01:10:06;102613.98;;;13.98;41.15
55687;BME280;41911;52.362;4.978;2023-05-20T01:10:40;102612.44;;;14.12;41.14
55687;BME280;41911;52.362;4.978;2023-05-20T01:11:16;102608.21;;;14.31;41.52
55687;BME280;41911;52.362;4.978;2023-05-20T01:11:55;102610.71;;;13.89;41.84
55687;BME280;41911;52.362;4.978;2023-05-20T01:12:33;102608.35;;;14.33;41.35
55687;BME280;41911;52.362;4.978;2023-05-20T01:13:10;102608.26;;;14.26;41.37
55687;BME280;41911;52.362;4.978;2023-05-20T01:13:48;102609.17;;;14.23;41.29
55687;BME280;41911;52.362;4.978;2023-05-20T01:14:22;102608.00;;;13.92;41.41
55687;BME280;41911;52.362;4.978;2023-05-20T01:14:58;102607.46;;;14.02;41.08
55687;BME280;41911;52.362;4.978;2023-05-20T01:15:29;102605.89;;;14.00;40.94
55687;BME280;41911;52.362;4.978;2023-05-20T01:16:02;102608.11;;;14.29;41.33
55687;BME280;41911;52.362;4.978;2023-05-20T01:16:34;102603.85;;;13.96;41.45
55687;BME280;41911;52.362;4.978;2023-05-20T01:17:07;102602.61;;;14.28;40.87
55687;BME280;41911;52.362;4.978;2023-05-20T01:17:43;102601.81;;;14.06;41.18
55687;BME280;41911;52.362;4.978;2023-05-20T01:18:15;102603.03;;;13.62;41.14
55687;BME280;41911;52.362;4.978;2023-05-20T01:18:47;102603.98;;;14.11;41.21
55687;BME280;41911;52.362;4.978;2023-05-20T01:19:26;102602.96;;;13.91;40.87
55687;BME280;41911;52.362;4.978;2023-05-20T01:20:01;102599.85;;;14.29;40.66
55687;BME280;41911;52.362;4.978;2023-05-20T01:20:33;102602.83;;;14.23;40.55
55687;BME280;41911;52.362;4.978;2023-05-20T01:21:07;102600.94;;;14.31;40.60
55687;BME280;41911;52.362;4.978;2023-05-20T01:21:39;102603.13;;;14.13;40.87
55687;BME280;41911;52.362;4.978;2023-05-20T01:22:12;102602.36;;;14.09;40.52
55687;BME280;41911;52.362;4.978;2023-05-20T01:22:47;102604.18;;;13.86;40.31
55687;BME280;41911;52.362;4.978;2023-05-20T01:23:18;102599.96;;;14.25;40.06
55687;BME280;41911;52.362;4.978;2023-05-20T01:23:49;102602.81;;;14.09;39.74
55687;BME280;41911;52.362;4.978;2023-05-20T01:24:20;102603.52;;;14.38;39.63
55687;BME280;41911;52.362;4.978;2023-05-20T01:24:51;102603.29;;;13.86;39.84
55687;BME280;41911;52.362;4.978;2023-05-20T01:25:23;102599.52;;;13.87;40.19
55687;BME280;41911;52.362;4.978;2023-05-20T01:25:54;102602.20;;;14.16;40.34
55687;BME280;41911;52.362;4.978;2023-05-20T01:26:25;102602.91;;;13.62;40.43
55687;BME280;41911;52.362;4.978;2023-05-20T01:26:56;102604.53;;;13.35;40.43
55687;BME280;41911;52.362;4.978;2023-05-20T01:27:27;102602.77;;;13.86;40.34
55687;BME280;41911;52.362;4.978;2023-05-20T01:27:58;102601.00;;;13.81;40.51
55687;BME280;41911;52.362;4.978;2023-05-20T01:28:29;102603.24;;;13.85;40.75
55687;BME280;41911;52.362;4.978;2023-05-20T01:28:59;102603.02;;;13.80;40.76
55687;BME280;41911;52.362;4.978;2023-05-20T01:29:30;102601.75;;;13.80;41.01
55687;BME280;41911;52.362;4.978;2023-05-20T01:30:02;102602.81;;;13.82;41.42
55687;BME280;41911;52.362;4.978;2023-05-20T01:30:42;102602.21;;;13.88;41.17
55687;BME280;41911;52.362;4.978;2023-05-20T01:31:20;102600.50;;;13.79;41.07
55687;BME280;41911;52.362;4.978;2023-05-20T01:31:54;102603.86;;;13.85;41.05
55687;BME280;41911;52.362;4.978;2023-05-20T01:32:31;102598.64;;;13.67;41.35
55687;BME280;41911;52.362;4.978;2023-05-20T01:33:08;102599.90;;;13.71;40.94
55687;BME280;41911;52.362;4.978;2023-05-20T01:33:41;102597.38;;;13.39;40.59
55687;BME280;41911;52.362;4.978;2023-05-20T01:34:12;102597.73;;;13.82;40.67
55687;BME280;41911;52.362;4.978;2023-05-20T01:34:44;102599.58;;;13.60;40.49
55687;BME280;41911;52.362;4.978;2023-05-20T01:35:17;102600.32;;;14.32;40.60
55687;BME280;41911;52.362;4.978;2023-05-20T01:35:49;102599.14;;;13.75;40.95
55687;BME280;41911;52.362;4.978;2023-05-20T01:36:20;102602.51;;;13.73;40.93
55687;BME280;41911;52.362;4.978;2023-05-20T01:36:52;102602.86;;;13.71;40.89
55687;BME280;41911;52.362;4.978;2023-05-20T01:37:24;102600.77;;;13.71;41.01
55687;BME280;41911;52.362;4.978;2023-05-20T01:37:56;102602.84;;;13.55;40.91
55687;BME280;41911;52.362;4.978;2023-05-20T01:38:28;102601.94;;;13.73;41.08
55687;BME280;41911;52.362;4.978;2023-05-20T01:39:01;102599.52;;;14.13;40.82
55687;BME280;41911;52.362;4.978;2023-05-20T01:39:35;102598.89;;;13.82;40.87
55687;BME280;41911;52.362;4.978;2023-05-20T01:40:07;102598.20;;;13.87;40.84
55687;BME280;41911;52.362;4.978;2023-05-20T01:40:38;102599.07;;;13.93;41.02
55687;BME280;41911;52.362;4.978;2023-05-20T01:41:11;102601.18;;;13.96;40.94
55687;BME280;41911;52.362;4.978;2023-05-20T01:41:43;102595.22;;;13.86;40.86
55687;BME280;41911;52.362;4.978;2023-05-20T01:42:15;102594.75;;;13.80;40.88
55687;BME280;41911;52.362;4.978;2023-05-20T01:42:47;102594.20;;;13.86;40.88
55687;BME280;41911;52.362;4.978;2023-05-20T01:43:20;102596.83;;;13.80;40.70
55687;BME280;41911;52.362;4.978;2023-05-20T01:43:51;102590.07;;;13.79;41.15
55687;BME280;41911;52.362;4.978;2023-05-20T01:44:22;102594.81;;;13.89;40.75
55687;BME280;41911;52.362;4.978;2023-05-20T01:44:53;102591.55;;;13.81;41.05
55687;BME280;41911;52.362;4.978;2023-05-20T01:45:25;102591.35;;;13.75;41.06
55687;BME280;41911;52.362;4.978;2023-05-20T01:45:56;102590.54;;;13.93;40.94
55687;BME280;41911;52.362;4.978;2023-05-20T01:46:27;102590.67;;;13.77;41.21
55687;BME280;41911;52.362;4.978;2023-05-20T01:47:02;102589.51;;;13.86;41.20
55687;BME280;41911;52.362;4.978;2023-05-20T01:47:33;102588.37;;;13.87;41.03
55687;BME280;41911;52.362;4.978;2023-05-20T01:48:04;102590.44;;;13.90;41.17
55687;BME280;41911;52.362;4.978;2023-05-20T01:48:35;102588.50;;;13.56;41.64
55687;BME280;41911;52.362;4.978;2023-05-20T01:49:06;102589.09;;;13.94;41.49
55687;BME280;41911;52.362;4.978;2023-05-20T01:49:37;102586.73;;;14.09;40.87
55687;BME280;41911;52.362;4.978;2023-05-20T01:50:08;102588.33;;;13.87;41.10
55687;BME280;41911;52.362;4.978;2023-05-20T01:50:39;102588.03;;;13.70;40.91
55687;BME280;41911;52.362;4.978;2023-05-20T01:51:10;102590.86;;;13.65;41.06
55687;BME280;41911;52.362;4.978;2023-05-20T01:51:41;102588.90;;;13.67;40.81
55687;BME280;41911;52.362;4.978;2023-05-20T01:52:12;102586.74;;;13.91;40.38
55687;BME280;41911;52.362;4.978;2023-05-20T01:52:43;102587.95;;;13.78;40.32
55687;BME280;41911;52.362;4.978;2023-05-20T01:53:14;102584.93;;;13.96;40.09
55687;BME280;41911;52.362;4.978;2023-05-20T01:53:45;102586.48;;;13.95;40.32
55687;BME280;41911;52.362;4.978;2023-05-20T01:54:16;102583.69;;;13.53;40.91
55687;BME280;41911;52.362;4.978;2023-05-20T01:54:47;102584.71;;;13.64;40.88
55687;BME280;41911;52.362;4.978;2023-05-20T01:55:18;102584.09;;;13.59;40.96
55687;BME280;41911;52.362;4.978;2023-05-20T01:55:49;102584.68;;;13.54;41.15
55687;BME280;41911;52.362;4.978;2023-05-20T01:56:20;102582.45;;;13.51;40.76
55687;BME280;41911;52.362;4.978;2023-05-20T01:56:50;102584.01;;;13.68;40.64
55687;BME280;41911;52.362;4.978;2023-05-20T01:57:22;102582.56;;;13.62;41.11
55687;BME280;41911;52.362;4.978;2023-05-20T01:57:53;102585.11;;;13.75;40.78
55687;BME280;41911;52.362;4.978;2023-05-20T01:58:24;102581.39;;;13.52;40.72
55687;BME280;41911;52.362;4.978;2023-05-20T01:58:55;102583.77;;;14.00;40.36
55687;BME280;41911;52.362;4.978;2023-05-20T01:59:26;102584.96;;;13.89;40.36
55687;BME280;41911;52.362;4.978;2023-05-20T01:59:57;102583.67;;;13.63;40.55
55687;BME280;41911;52.362;4.978;2023-05-20T02:00:28;102583.84;;;13.95;40.55
55687;BME280;41911;52.362;4.978;2023-05-20T02:00:59;102585.45;;;13.98;40.47
55687;BME280;41911;52.362;4.978;2023-05-20T02:01:30;102583.62;;;13.97;40.68
55687;BME280;41911;52.362;4.978;2023-05-20T02:02:01;102583.07;;;13.94;40.95
55687;BME280;41911;52.362;4.978;2023-05-20T02:02:31;102580.94;;;13.99;40.85
55687;BME280;41911;52.362;4.978;2023-05-20T02:03:03;102583.59;;;14.03;40.81
55687;BME280;41911;52.362;4.978;2023-05-20T02:03:33;102579.31;;;14.04;40.52
55687;BME280;41911;52.362;4.978;2023-05-20T02:04:04;102581.17;;;13.97;40.97
55687;BME280;41911;52.362;4.978;2023-05-20T02:04:35;102581.17;;;14.00;41.01
55687;BME280;41911;52.362;4.978;2023-05-20T02:05:07;102580.15;;;13.87;41.03
55687;BME280;41911;52.362;4.978;2023-05-20T02:05:38;102578.96;;;13.90;40.93
55687;BME280;41911;52.362;4.978;2023-05-20T02:06:09;102579.41;;;14.09;40.85
55687;BME280;41911;52.362;4.978;2023-05-20T02:06:40;102578.83;;;14.14;41.07
55687;BME280;41911;52.362;4.978;2023-05-20T02:07:11;102578.63;;;13.88;40.97
55687;BME280;41911;52.362;4.978;2023-05-20T02:07:42;102580.31;;;13.98;40.27
55687;BME280;41911;52.362;4.978;2023-05-20T02:08:13;102579.17;;;13.82;40.44
55687;BME280;41911;52.362;4.978;2023-05-20T02:08:43;102578.90;;;14.12;40.48
55687;BME280;41911;52.362;4.978;2023-05-20T02:09:14;102576.87;;;14.21;40.55
55687;BME280;41911;52.362;4.978;2023-05-20T02:09:46;102577.90;;;13.80;40.24
55687;BME280;41911;52.362;4.978;2023-05-20T02:10:17;102580.40;;;13.78;40.76
55687;BME280;41911;52.362;4.978;2023-05-20T02:10:48;102577.21;;;14.08;40.11
55687;BME280;41911;52.362;4.978;2023-05-20T02:11:19;102580.31;;;14.23;40.39
55687;BME280;41911;52.362;4.978;2023-05-20T02:11:50;102581.05;;;13.85;40.33
55687;BME280;41911;52.362;4.978;2023-05-20T02:12:21;102581.63;;;13.85;40.35
55687;BME280;41911;52.362;4.978;2023-05-20T02:12:51;102583.41;;;13.60;40.43
55687;BME280;41911;52.362;4.978;2023-05-20T02:13:22;102583.33;;;13.76;40.29
55687;BME280;41911;52.362;4.978;2023-05-20T02:13:53;102584.35;;;13.93;40.56
55687;BME280;41911;52.362;4.978;2023-05-20T02:14:24;102581.06;;;13.73;40.70
55687;BME280;41911;52.362;4.978;2023-05-20T02:14:55;102580.41;;;13.80;40.59
55687;BME280;41911;52.362;4.978;2023-05-20T02:15:26;102580.79;;;14.11;40.52
55687;BME280;41911;52.362;4.978;2023-05-20T02:15:57;102580.89;;;14.12;40.65
55687;BME280;41911;52.362;4.978;2023-05-20T02:16:28;102581.78;;;14.07;40.76
55687;BME280;41911;52.362;4.978;2023-05-20T02:16:59;102582.88;;;14.12;40.75
55687;BME280;41911;52.362;4.978;2023-05-20T02:17:30;102579.97;;;14.05;40.98
55687;BME280;41911;52.362;4.978;2023-05-20T02:18:01;102580.63;;;13.78;41.08
55687;BME280;41911;52.362;4.978;2023-05-20T02:18:32;102585.38;;;13.66;40.98
55687;BME280;41911;52.362;4.978;2023-05-20T02:19:03;102583.27;;;13.80;40.93
55687;BME280;41911;52.362;4.978;2023-05-20T02:19:33;102582.29;;;14.06;40.60
55687;BME280;41911;52.362;4.978;2023-05-20T02:20:06;102582.91;;;14.20;41.39
55687;BME280;41911;52.362;4.978;2023-05-20T02:20:37;102584.33;;;13.87;41.31
55687;BME280;41911;52.362;4.978;2023-05-20T02:21:08;102580.60;;;13.78;41.24
55687;BME280;41911;52.362;4.978;2023-05-20T02:21:41;102584.09;;;13.78;41.31
55687;BME280;41911;52.362;4.978;2023-05-20T02:22:12;102582.88;;;13.86;41.53
55687;BME280;41911;52.362;4.978;2023-05-20T02:22:43;102581.96;;;13.62;41.35
55687;BME280;41911;52.362;4.978;2023-05-20T02:23:13;102584.02;;;14.20;41.74
55687;BME280;41911;52.362;4.978;2023-05-20T02:23:44;102582.97;;;13.54;41.64
55687;BME280;41911;52.362;4.978;2023-05-20T02:24:16;102583.19;;;13.89;41.53
55687;BME280;41911;52.362;4.978;2023-05-20T02:24:47;102583.37;;;14.20;41.44
55687;BME280;41911;52.362;4.978;2023-05-20T02:25:18;102582.85;;;13.80;41.51
55687;BME280;41911;52.362;4.978;2023-05-20T02:25:48;102582.23;;;14.20;41.64
55687;BME280;41911;52.362;4.978;2023-05-20T02:26:19;102582.02;;;13.90;41.89
55687;BME280;41911;52.362;4.978;2023-05-20T02:26:50;102582.38;;;14.17;41.59
55687;BME280;41911;52.362;4.978;2023-05-20T02:27:21;102582.46;;;14.19;41.99
55687;BME280;41911;52.362;4.978;2023-05-20T02:27:52;102581.92;;;13.56;41.76
55687;BME280;41911;52.362;4.978;2023-05-20T02:28:23;102579.66;;;14.23;41.85
55687;BME280;41911;52.362;4.978;2023-05-20T02:28:54;102578.33;;;14.00;41.92
55687;BME280;41911;52.362;4.978;2023-05-20T02:29:25;102580.31;;;13.58;41.75
55687;BME280;41911;52.362;4.978;2023-05-20T02:29:56;102576.22;;;13.74;41.40
55687;BME280;41911;52.362;4.978;2023-05-20T02:30:27;102576.41;;;14.00;41.37
55687;BME280;41911;52.362;4.978;2023-05-20T02:30:58;102575.28;;;14.06;41.12
55687;BME280;41911;52.362;4.978;2023-05-20T02:31:29;102572.90;;;13.75;41.28
55687;BME280;41911;52.362;4.978;2023-05-20T02:32:00;102574.23;;;13.87;41.58
55687;BME280;41911;52.362;4.978;2023-05-20T02:32:31;102573.92;;;14.06;41.71
55687;BME280;41911;52.362;4.978;2023-05-20T02:33:01;102574.01;;;14.18;41.84
55687;BME280;41911;52.362;4.978;2023-05-20T02:33:32;102574.01;;;13.59;41.81
55687;BME280;41911;52.362;4.978;2023-05-20T02:34:03;102574.41;;;13.95;41.72
55687;BME280;41911;52.362;4.978;2023-05-20T02:34:34;102571.88;;;13.85;41.70
55687;BME280;41911;52.362;4.978;2023-05-20T02:35:06;102572.95;;;13.97;41.52
55687;BME280;41911;52.362;4.978;2023-05-20T02:35:37;102573.97;;;14.10;41.74
55687;BME280;41911;52.362;4.978;2023-05-20T02:36:08;102577.03;;;14.19;41.59
55687;BME280;41911;52.362;4.978;2023-05-20T02:36:39;102573.93;;;13.38;41.91
55687;BME280;41911;52.362;4.978;2023-05-20T02:37:10;102575.57;;;14.13;41.59
55687;BME280;41911;52.362;4.978;2023-05-20T02:37:41;102577.73;;;13.74;41.71
55687;BME280;41911;52.362;4.978;2023-05-20T02:38:11;102574.79;;;13.80;41.98
55687;BME280;41911;52.362;4.978;2023-05-20T02:38:43;102576.59;;;14.08;41.83
55687;BME280;41911;52.362;4.978;2023-05-20T02:39:14;102575.14;;;14.01;41.76
55687;BME280;41911;52.362;4.978;2023-05-20T02:39:45;102578.00;;;13.88;41.63
55687;BME280;41911;52.362;4.978;2023-05-20T02:40:16;102574.80;;;13.86;41.73
55687;BME280;41911;52.362;4.978;2023-05-20T02:40:47;102577.25;;;13.89;41.74
55687;BME280;41911;52.362;4.978;2023-05-20T02:41:18;102577.49;;;14.20;41.93
55687;BME280;41911;52.362;4.978;2023-05-20T02:41:49;102576.31;;;14.16;41.86
55687;BME280;41911;52.362;4.978;2023-05-20T02:42:20;102580.30;;;13.50;41.91
55687;BME280;41911;52.362;4.978;2023-05-20T02:42:51;102579.72;;;13.58;42.10
55687;BME280;41911;52.362;4.978;2023-05-20T02:43:22;102573.89;;;13.86;41.88
55687;BME280;41911;52.362;4.978;2023-05-20T02:43:53;102574.52;;;13.97;41.63
55687;BME280;41911;52.362;4.978;2023-05-20T02:44:24;102575.52;;;13.89;41.59
55687;BME280;41911;52.362;4.978;2023-05-20T02:44:55;102573.36;;;13.84;41.72